Time;durP1;ratioP1;P1;durP2;ratioP2;P2;SDS_P1;SDS_P2;PMS_P1;PMS_P2;Temp;Humidity;BMP_temperature;BMP_pressure;BME280_temperature;BME280_humidity;BME280_pressure;Samples;Min_cycle;Max_cycle;Signal;HPM_P1;HPM_P2
2020/12/11 00:01:37;;;;;;;51.90;19.38;;;;;;;;;;5054988;28;20027;-84
2020/12/11 00:04:03;;;;;;;56.33;20.77;;;;;;;;;;5073889;28;20040;-80
2020/12/11 00:06:29;;;;;;;51.03;18.13;;;;;;;;;;5073502;28;20021;-85
2020/12/11 00:08:55;;;;;;;63.08;19.38;;;;;;;;;;5073817;28;20028;-85
2020/12/11 00:11:31;;;;;;;57.35;20.60;;;;;;;;;;5073446;28;20048;-86
2020/12/11 00:13:57;;;;;;;58.83;20.13;;;;;;;;;;5073808;28;20028;-83
2020/12/11 00:16:24;;;;;;;56.35;19.27;;;;;;;;;;5073678;28;20101;-86
2020/12/11 00:18:50;;;;;;;53.45;19.83;;;;;;;;;;5073559;28;20082;-86
2020/12/11 00:21:16;;;;;;;55.38;21.38;;;;;;;;;;5073066;28;20075;-84
2020/12/11 00:23:42;;;;;;;63.17;20.63;;;;;;;;;;5076161;28;20021;-84
2020/12/11 00:26:11;;;;;;;50.53;19.48;;;;;;;;;;5093807;28;20070;-85
2020/12/11 00:28:37;;;;;;;44.00;17.45;;;;;;;;;;5092513;28;20023;-84
2020/12/11 00:31:03;;;;;;;48.28;18.52;;;;;;;;;;5093254;28;20395;-83
2020/12/11 00:33:30;;;;;;;44.08;19.15;;;;;;;;;;5093395;28;20103;-85
2020/12/11 00:35:56;;;;;;;41.03;17.30;;;;;;;;;;5093580;28;20028;-86
2020/12/11 00:38:22;;;;;;;46.70;18.23;;;;;;;;;;5093647;28;20029;-84
2020/12/11 00:40:48;;;;;;;37.55;17.52;;;;;;;;;;5075361;28;20027;-86
2020/12/11 00:43:14;;;;;;;45.60;19.17;;;;;;;;;;5089250;28;20039;-86
2020/12/11 00:45:40;;;;;;;38.92;16.35;;;;;;;;;;5072937;28;20020;-85
2020/12/11 00:48:06;;;;;;;39.22;17.08;;;;;;;;;;5073320;28;20029;-86
2020/12/11 00:50:32;;;;;;;44.22;16.52;;;;;;;;;;5072973;28;20032;-86
2020/12/11 00:52:59;;;;;;;41.30;17.30;;;;;;;;;;5072585;28;20543;-86
2020/12/11 00:55:25;;;;;;;42.53;17.52;;;;;;;;;;5072689;28;20104;-86
2020/12/11 00:57:51;;;;;;;42.00;16.48;;;;;;;;;;5072992;28;20050;-85
2020/12/11 01:00:17;;;;;;;38.03;15.73;;;;;;;;;;5073155;28;20025;-86
2020/12/11 01:02:43;;;;;;;33.67;15.38;;;;;;;;;;5072871;28;20020;-86
2020/12/11 01:05:09;;;;;;;37.65;16.27;;;;;;;;;;5072775;28;20024;-85
2020/12/11 01:07:35;;;;;;;41.17;17.00;;;;;;;;;;5072461;28;20020;-82
2020/12/11 01:10:02;;;;;;;39.65;16.52;;;;;;;;;;5077719;28;20091;-86
2020/12/11 01:12:28;;;;;;;37.95;16.27;;;;;;;;;;5092920;28;20020;-86
2020/12/11 01:14:54;;;;;;;33.38;15.93;;;;;;;;;;5092686;28;20426;-83
2020/12/11 01:17:20;;;;;;;33.10;15.13;;;;;;;;;;5092445;28;20114;-86
2020/12/11 01:19:46;;;;;;;37.50;16.23;;;;;;;;;;5093003;28;20502;-84
2020/12/11 01:22:12;;;;;;;36.25;16.52;;;;;;;;;;5092532;28;20103;-85
2020/12/11 01:24:39;;;;;;;33.85;16.38;;;;;;;;;;5074364;28;20020;-85
2020/12/11 01:27:05;;;;;;;35.05;16.38;;;;;;;;;;5092496;28;20472;-85
2020/12/11 01:29:31;;;;;;;33.05;15.02;;;;;;;;;;5092461;28;20059;-85
2020/12/11 01:31:58;;;;;;;37.28;16.13;;;;;;;;;;5074546;28;20020;-86
2020/12/11 01:34:24;;;;;;;38.78;16.67;;;;;;;;;;5074636;28;20376;-86
2020/12/11 01:36:50;;;;;;;36.05;15.38;;;;;;;;;;5092757;28;20107;-85
2020/12/11 01:39:16;;;;;;;34.55;15.02;;;;;;;;;;5092735;28;20024;-85
2020/12/11 01:41:43;;;;;;;33.83;14.80;;;;;;;;;;5092088;28;20384;-87
2020/12/11 01:44:09;;;;;;;31.65;15.40;;;;;;;;;;5092015;28;20024;-87
2020/12/11 01:46:37;;;;;;;33.60;15.10;;;;;;;;;;5092264;28;20486;-86
2020/12/11 01:49:03;;;;;;;30.55;14.88;;;;;;;;;;5092507;28;20047;-84
2020/12/11 01:51:29;;;;;;;34.42;16.42;;;;;;;;;;5092368;28;20043;-83
2020/12/11 01:53:56;;;;;;;31.67;15.20;;;;;;;;;;5092175;28;20547;-85
2020/12/11 01:56:24;;;;;;;31.17;15.13;;;;;;;;;;5092037;28;20031;-83
2020/12/11 01:58:53;;;;;;;37.53;16.10;;;;;;;;;;5092147;28;20020;-86
2020/12/11 02:01:21;;;;;;;33.97;14.30;;;;;;;;;;5092246;28;20028;-85
2020/12/11 02:03:48;;;;;;;34.13;14.50;;;;;;;;;;5091834;28;20062;-87
2020/12/11 02:06:14;;;;;;;38.38;15.70;;;;;;;;;;5092002;28;20380;-86
2020/12/11 02:08:40;;;;;;;30.20;14.10;;;;;;;;;;5092040;28;20047;-85
2020/12/11 02:11:21;;;;;;;40.40;15.52;;;;;;;;;;5091887;28;20052;-83
2020/12/11 02:13:47;;;;;;;30.98;14.90;;;;;;;;;;5092252;28;20059;-85
2020/12/11 02:16:13;;;;;;;28.27;13.63;;;;;;;;;;5091935;28;20021;-87
2020/12/11 02:18:42;;;;;;;32.40;15.18;;;;;;;;;;5074039;28;20028;-86
2020/12/11 02:21:09;;;;;;;32.75;14.90;;;;;;;;;;5092232;28;20408;-87
2020/12/11 02:23:35;;;;;;;29.05;14.25;;;;;;;;;;5092080;28;20085;-86
2020/12/11 02:26:01;;;;;;;31.45;14.70;;;;;;;;;;5073896;28;20077;-86
2020/12/11 02:28:34;;;;;;;29.63;13.68;;;;;;;;;;5091905;28;20024;-87
2020/12/11 02:31:00;;;;;;;27.02;12.93;;;;;;;;;;5092071;28;20072;-84
2020/12/11 02:33:26;;;;;;;28.13;12.95;;;;;;;;;;5091713;28;20020;-84
2020/12/11 02:35:52;;;;;;;30.33;14.07;;;;;;;;;;5091645;28;20629;-87
2020/12/11 02:38:18;;;;;;;27.58;13.27;;;;;;;;;;5091732;28;20070;-87
2020/12/11 02:40:49;;;;;;;27.20;13.15;;;;;;;;;;5073732;28;20034;-85
2020/12/11 02:43:16;;;;;;;27.33;12.27;;;;;;;;;;5092001;28;20024;-87
2020/12/11 02:45:43;;;;;;;25.05;11.45;;;;;;;;;;5091811;28;20484;-86
2020/12/11 02:48:09;;;;;;;21.75;12.05;;;;;;;;;;5091774;28;20078;-86
2020/12/11 02:50:35;;;;;;;23.73;11.05;;;;;;;;;;5091669;28;20082;-83
2020/12/11 02:53:01;;;;;;;24.92;11.45;;;;;;;;;;5093901;28;20059;-86
2020/12/11 02:55:27;;;;;;;24.58;11.75;;;;;;;;;;5095337;28;20020;-86
2020/12/11 02:57:53;;;;;;;21.63;10.77;;;;;;;;;;5095695;28;20031;-78
2020/12/11 03:00:19;;;;;;;24.05;10.95;;;;;;;;;;5095344;28;20459;-84
2020/12/11 03:02:45;;;;;;;23.17;10.95;;;;;;;;;;5095206;28;20090;-84
2020/12/11 03:05:12;;;;;;;21.48;10.90;;;;;;;;;;5094948;28;20491;-86
2020/12/11 03:07:38;;;;;;;22.73;11.25;;;;;;;;;;5094942;28;20513;-87
2020/12/11 03:10:04;;;;;;;19.92;10.30;;;;;;;;;;5094946;28;20756;-86
2020/12/11 03:12:30;;;;;;;23.38;11.73;;;;;;;;;;5095003;28;20468;-85
2020/12/11 03:14:56;;;;;;;21.23;11.68;;;;;;;;;;5095208;28;20381;-87
2020/12/11 03:17:22;;;;;;;23.55;11.13;;;;;;;;;;5095093;28;20488;-76
2020/12/11 03:19:48;;;;;;;25.63;12.35;;;;;;;;;;5077106;28;20032;-87
2020/12/11 03:22:14;;;;;;;24.05;12.38;;;;;;;;;;5094899;28;20024;-86
2020/12/11 03:24:40;;;;;;;24.63;12.43;;;;;;;;;;5095007;28;20414;-85
2020/12/11 03:27:06;;;;;;;29.67;13.13;;;;;;;;;;5094756;28;20471;-86
2020/12/11 03:29:32;;;;;;;35.47;13.95;;;;;;;;;;5094916;28;20074;-86
2020/12/11 03:31:58;;;;;;;29.75;14.18;;;;;;;;;;5076933;28;20510;-87
2020/12/11 03:34:24;;;;;;;27.65;12.95;;;;;;;;;;5094607;28;20027;-88
2020/12/11 03:36:50;;;;;;;28.38;13.07;;;;;;;;;;5094556;28;20113;-87
2020/12/11 03:39:16;;;;;;;31.40;13.02;;;;;;;;;;5094912;28;20402;-86
2020/12/11 03:41:45;;;;;;;27.42;13.05;;;;;;;;;;5094526;28;20020;-84
2020/12/11 03:44:11;;;;;;;25.25;12.90;;;;;;;;;;5094221;28;20113;-82
2020/12/11 03:46:37;;;;;;;28.02;12.05;;;;;;;;;;5076369;28;20388;-85
2020/12/11 03:49:03;;;;;;;23.70;11.90;;;;;;;;;;5093783;28;20028;-84
2020/12/11 03:51:29;;;;;;;24.48;11.80;;;;;;;;;;5094261;28;20082;-82
2020/12/11 03:53:55;;;;;;;21.15;10.93;;;;;;;;;;5094348;28;20027;-85
2020/12/11 03:56:21;;;;;;;22.58;11.32;;;;;;;;;;5093960;28;20039;-86
2020/12/11 03:58:47;;;;;;;24.65;11.55;;;;;;;;;;5094678;28;20023;-85
2020/12/11 04:01:14;;;;;;;26.88;11.15;;;;;;;;;;5094178;28;20035;-86
2020/12/11 04:03:41;;;;;;;25.38;10.77;;;;;;;;;;5093904;28;20052;-87
2020/12/11 04:06:11;;;;;;;26.67;12.43;;;;;;;;;;5078877;28;20029;-86
2020/12/11 04:08:37;;;;;;;25.00;11.20;;;;;;;;;;5073718;28;20480;-86
2020/12/11 04:11:07;;;;;;;22.75;10.95;;;;;;;;;;5073364;28;20094;-85
2020/12/11 04:13:33;;;;;;;26.05;11.68;;;;;;;;;;5073774;28;20032;-75
2020/12/11 04:15:59;;;;;;;21.98;11.07;;;;;;;;;;5073001;28;20032;-84
2020/12/11 04:18:25;;;;;;;21.75;10.57;;;;;;;;;;5073468;28;20028;-81
2020/12/11 04:20:51;;;;;;;22.35;10.75;;;;;;;;;;5073671;28;20052;-81
2020/12/11 04:23:17;;;;;;;21.38;10.50;;;;;;;;;;5073153;28;20032;-77
2020/12/11 04:25:43;;;;;;;22.15;10.50;;;;;;;;;;5073057;28;20028;-80
2020/12/11 04:28:09;;;;;;;21.95;10.45;;;;;;;;;;5072973;28;20023;-79
2020/12/11 04:30:35;;;;;;;22.20;10.55;;;;;;;;;;5073021;28;20028;-82
2020/12/11 04:33:01;;;;;;;20.58;9.50;;;;;;;;;;5054990;28;20487;-80
2020/12/11 04:35:27;;;;;;;21.17;10.68;;;;;;;;;;5072988;28;20031;-78
2020/12/11 04:37:53;;;;;;;20.27;9.77;;;;;;;;;;5073183;28;20024;-82
2020/12/11 04:40:19;;;;;;;20.25;9.15;;;;;;;;;;5073211;28;20025;-82
2020/12/11 04:42:46;;;;;;;22.38;11.13;;;;;;;;;;5072698;28;20483;-84
2020/12/11 04:45:12;;;;;;;20.50;9.23;;;;;;;;;;5072687;28;20031;-80
2020/12/11 04:47:45;;;;;;;17.65;9.60;;;;;;;;;;5072669;28;20020;-80
2020/12/11 04:50:15;;;;;;;17.45;9.32;;;;;;;;;;5055001;28;20039;-77
2020/12/11 04:52:43;;;;;;;20.15;9.15;;;;;;;;;;5072890;28;20059;-80
2020/12/11 04:55:13;;;;;;;17.08;8.60;;;;;;;;;;5072649;28;20535;-80
2020/12/11 04:57:44;;;;;;;13.32;6.90;;;;;;;;;;5054787;28;20024;-79
2020/12/11 05:00:10;;;;;;;14.57;7.03;;;;;;;;;;5072853;28;20055;-80
2020/12/11 05:02:39;;;;;;;12.10;6.45;;;;;;;;;;5073055;28;20032;-81
2020/12/11 05:05:05;;;;;;;11.38;6.70;;;;;;;;;;5072471;28;20021;-80
2020/12/11 05:07:31;;;;;;;12.73;6.78;;;;;;;;;;5072459;28;20028;-83
2020/12/11 05:09:57;;;;;;;11.95;5.90;;;;;;;;;;5072366;28;20032;-82
2020/12/11 05:12:24;;;;;;;11.32;6.30;;;;;;;;;;5072614;28;20484;-80
2020/12/11 05:14:57;;;;;;;10.88;6.10;;;;;;;;;;5071750;28;20385;-80
2020/12/11 05:17:27;;;;;;;12.15;6.45;;;;;;;;;;5072641;28;20050;-86
2020/12/11 05:19:54;;;;;;;12.32;6.68;;;;;;;;;;5072514;28;20032;-87
2020/12/11 05:22:21;;;;;;;12.18;6.72;;;;;;;;;;5072485;28;20013;-82
2020/12/11 05:24:48;;;;;;;11.13;6.07;;;;;;;;;;5072458;28;20028;-85
2020/12/11 05:27:26;;;;;;;11.18;6.43;;;;;;;;;;5054656;28;20031;-86
2020/12/11 05:29:56;;;;;;;11.32;6.32;;;;;;;;;;5072259;28;20115;-87
2020/12/11 05:32:34;;;;;;;11.57;6.55;;;;;;;;;;5072730;28;20085;-85
2020/12/11 05:35:00;;;;;;;11.43;5.57;;;;;;;;;;5072364;28;20059;-86
2020/12/11 05:37:26;;;;;;;13.02;7.00;;;;;;;;;;5072511;28;20078;-85
2020/12/11 05:39:52;;;;;;;12.55;5.93;;;;;;;;;;5072492;28;20036;-87
2020/12/11 05:42:18;;;;;;;13.02;6.53;;;;;;;;;;5072287;28;20021;-86
2020/12/11 05:44:44;;;;;;;11.73;6.57;;;;;;;;;;5072138;28;20021;-85
2020/12/11 05:47:24;;;;;;;10.35;6.10;;;;;;;;;;5072480;28;20016;-87
2020/12/11 05:49:50;;;;;;;11.02;6.78;;;;;;;;;;5072776;28;20025;-84
2020/12/11 05:52:17;;;;;;;11.73;6.40;;;;;;;;;;5072775;28;20514;-87
2020/12/11 05:54:45;;;;;;;10.75;6.45;;;;;;;;;;5072319;28;20072;-89
2020/12/11 05:57:11;;;;;;;11.38;6.50;;;;;;;;;;5072769;28;20051;-86
2020/12/11 05:59:38;;;;;;;37.97;14.60;;;;;;;;;;5072726;28;20082;-89
2020/12/11 06:02:04;;;;;;;24.88;10.65;;;;;;;;;;5072963;28;20024;-88
2020/12/11 06:04:30;;;;;;;25.23;10.50;;;;;;;;;;5072782;28;20025;-88
2020/12/11 06:06:57;;;;;;;14.82;8.45;;;;;;;;;;5072523;28;20020;-87
2020/12/11 06:09:43;;;;;;;14.32;7.50;;;;;;;;;;5072530;28;20021;-88
2020/12/11 06:12:11;;;;;;;27.38;13.18;;;;;;;;;;5072105;28;20044;-88
2020/12/11 06:14:37;;;;;;;14.50;8.90;;;;;;;;;;5072421;28;20074;-87
2020/12/11 06:17:05;;;;;;;11.45;6.75;;;;;;;;;;5072569;28;20423;-82
2020/12/11 06:19:31;;;;;;;15.90;9.13;;;;;;;;;;5072372;28;20028;-81
2020/12/11 06:21:58;;;;;;;20.70;8.38;;;;;;;;;;5071984;28;20028;-85
2020/12/11 06:24:30;;;;;;;12.27;7.97;;;;;;;;;;5072025;28;20021;-91
2020/12/11 06:26:57;;;;;;;10.55;7.15;;;;;;;;;;5071247;28;20024;-75
2020/12/11 06:29:26;;;;;;;12.48;7.13;;;;;;;;;;5075229;28;20104;-83
2020/12/11 06:31:52;;;;;;;12.65;7.05;;;;;;;;;;5075526;28;20060;-83
2020/12/11 06:34:22;;;;;;;12.13;7.28;;;;;;;;;;5075756;28;20025;-87
2020/12/11 06:36:48;;;;;;;10.75;6.25;;;;;;;;;;5075583;28;20468;-84
2020/12/11 06:39:33;;;;;;;58.40;25.08;;;;;;;;;;5075787;28;20020;-86
2020/12/11 06:41:59;;;;;;;51.50;24.13;;;;;;;;;;5075535;28;20016;-82
2020/12/11 06:44:31;;;;;;;25.38;11.90;;;;;;;;;;5075935;28;20028;-85
2020/12/11 06:47:13;;;;;;;13.45;7.75;;;;;;;;;;5075419;28;20016;-87
2020/12/11 06:50:04;;;;;;;14.35;8.45;;;;;;;;;;5075575;28;20503;-88
2020/12/11 06:52:33;;;;;;;18.50;9.98;;;;;;;;;;5075446;28;20035;-87
2020/12/11 06:54:59;;;;;;;17.95;9.32;;;;;;;;;;5075436;28;20032;-84
2020/12/11 06:57:33;;;;;;;13.57;7.57;;;;;;;;;;5075454;28;20029;-79
2020/12/11 06:59:59;;;;;;;14.20;8.45;;;;;;;;;;5075547;28;20032;-87
2020/12/11 07:02:26;;;;;;;11.68;6.15;;;;;;;;;;5092115;28;20034;-81
2020/12/11 07:04:52;;;;;;;12.00;7.65;;;;;;;;;;5095297;28;20495;-84
2020/12/11 07:07:19;;;;;;;11.80;7.20;;;;;;;;;;5095693;28;20031;-84
2020/12/11 07:09:49;;;;;;;11.05;6.78;;;;;;;;;;5095268;28;20153;-85
2020/12/11 07:12:15;;;;;;;11.27;6.80;;;;;;;;;;5095164;28;20032;-85
2020/12/11 07:14:42;;;;;;;10.63;7.45;;;;;;;;;;5095264;28;20095;-81
2020/12/11 07:17:08;;;;;;;11.80;6.97;;;;;;;;;;5095035;28;20028;-86
2020/12/11 07:19:35;;;;;;;12.82;7.22;;;;;;;;;;5095311;28;20020;-81
2020/12/11 07:22:02;;;;;;;10.73;6.78;;;;;;;;;;5095103;28;20031;-86
2020/12/11 07:24:31;;;;;;;13.82;7.75;;;;;;;;;;5094771;28;20073;-84
2020/12/11 07:27:01;;;;;;;14.40;7.57;;;;;;;;;;5094325;28;20016;-87
2020/12/11 07:29:27;;;;;;;9.98;6.50;;;;;;;;;;5076761;28;20055;-78
2020/12/11 07:31:55;;;;;;;14.30;8.13;;;;;;;;;;5094765;28;20039;-85
2020/12/11 07:34:23;;;;;;;11.30;6.60;;;;;;;;;;5094032;28;20102;-86
2020/12/11 07:36:54;;;;;;;10.73;5.60;;;;;;;;;;5074410;28;20024;-81
2020/12/11 07:39:21;;;;;;;9.98;6.10;;;;;;;;;;5056288;28;20021;-86
2020/12/11 07:41:47;;;;;;;13.48;7.22;;;;;;;;;;5074250;28;20029;-85
2020/12/11 07:44:27;;;;;;;14.73;8.32;;;;;;;;;;5074332;28;20108;-79
2020/12/11 07:46:57;;;;;;;13.68;8.70;;;;;;;;;;5056420;28;20032;-89
2020/12/11 07:49:35;;;;;;;13.30;8.32;;;;;;;;;;5074493;28;20020;-79
2020/12/11 07:52:01;;;;;;;11.55;7.60;;;;;;;;;;5074360;28;20036;-86
2020/12/11 07:54:54;;;;;;;10.93;6.88;;;;;;;;;;5055918;28;20025;-86
2020/12/11 07:57:22;;;;;;;11.75;7.13;;;;;;;;;;5071958;28;20071;-88
2020/12/11 08:00:01;;;;;;;11.10;6.72;;;;;;;;;;5074304;28;20025;-93
2020/12/11 08:02:28;;;;;;;9.80;6.22;;;;;;;;;;5078311;28;20485;-91
2020/12/11 08:04:55;;;;;;;10.98;6.82;;;;;;;;;;5076277;28;20536;-87
2020/12/11 08:07:24;;;;;;;8.68;4.30;;;;;;;;;;5077060;28;20020;-87
2020/12/11 08:09:50;;;;;;;11.40;6.78;;;;;;;;;;5080533;28;20023;-79
2020/12/11 08:12:16;;;;;;;13.38;7.05;;;;;;;;;;5096251;28;20539;-93
2020/12/11 08:14:43;;;;;;;10.40;5.85;;;;;;;;;;5097847;28;20028;-91
2020/12/11 08:17:10;;;;;;;10.30;6.68;;;;;;;;;;5097294;28;20107;-92
2020/12/11 08:19:37;;;;;;;12.77;7.35;;;;;;;;;;5099270;28;20016;-82
2020/12/11 08:22:13;;;;;;;11.82;7.05;;;;;;;;;;5078444;28;20074;-91
2020/12/11 08:24:39;;;;;;;11.63;6.95;;;;;;;;;;5094975;28;20020;-92
2020/12/11 08:27:06;;;;;;;14.18;8.18;;;;;;;;;;5094978;28;20055;-92
2020/12/11 08:29:32;;;;;;;11.80;7.55;;;;;;;;;;5095451;28;20020;-92
2020/12/11 08:31:58;;;;;;;12.70;7.53;;;;;;;;;;5094327;28;20032;-91
2020/12/11 08:34:28;;;;;;;13.32;7.78;;;;;;;;;;5094610;28;20098;-89
2020/12/11 08:37:01;;;;;;;14.07;8.13;;;;;;;;;;5094826;28;20103;-89
2020/12/11 08:39:28;;;;;;;12.67;7.80;;;;;;;;;;5077092;28;20020;-84
2020/12/11 08:42:31;;;;;;;14.57;8.35;;;;;;;;;;5095310;28;20020;-89
2020/12/11 08:45:42;;;;;;;13.48;8.68;;;;;;;;;;5097060;28;20020;-89
2020/12/11 08:53:01;;;;;;;14.95;8.50;;;;;;;;;;5097085;28;20062;-90
2020/12/11 08:55:27;;;;;;;13.27;8.05;;;;;;;;;;5078907;28;20023;-86
2020/12/11 08:57:53;;;;;;;15.23;8.32;;;;;;;;;;5098139;28;20357;-90
2020/12/11 09:00:19;;;;;;;13.27;7.25;;;;;;;;;;5096746;28;20027;-92
2020/12/11 09:02:46;;;;;;;33.60;15.55;;;;;;;;;;5095384;28;20019;-91
2020/12/11 09:05:12;;;;;;;14.95;7.65;;;;;;;;;;5095348;28;20020;-85
2020/12/11 09:07:38;;;;;;;16.25;9.68;;;;;;;;;;5095844;28;20020;-93
2020/12/11 09:10:04;;;;;;;14.98;7.07;;;;;;;;;;5096162;28;20107;-87
2020/12/11 09:12:31;;;;;;;14.23;8.85;;;;;;;;;;5096596;28;20031;-92
2020/12/11 09:14:57;;;;;;;15.45;8.25;;;;;;;;;;5097531;28;20023;-83
2020/12/11 09:17:23;;;;;;;16.60;9.07;;;;;;;;;;5099960;28;20541;-93
2020/12/11 09:19:49;;;;;;;47.08;19.73;;;;;;;;;;5101088;28;20028;-93
2020/12/11 09:22:15;;;;;;;29.38;13.95;;;;;;;;;;5100594;28;20028;-92
2020/12/11 09:24:41;;;;;;;32.33;16.23;;;;;;;;;;5096417;28;20491;-93
2020/12/11 09:27:08;;;;;;;14.75;7.78;;;;;;;;;;5094265;28;20035;-86
2020/12/11 09:29:38;;;;;;;20.65;10.50;;;;;;;;;;5095337;28;20016;-84
2020/12/11 09:32:06;;;;;;;12.63;7.63;;;;;;;;;;5094814;28;20034;-80
2020/12/11 09:34:32;;;;;;;13.00;7.30;;;;;;;;;;5096530;28;20020;-92
2020/12/11 09:36:59;;;;;;;15.98;8.52;;;;;;;;;;5098990;28;20024;-89
2020/12/11 09:39:25;;;;;;;13.13;6.88;;;;;;;;;;5100662;28;20023;-93
2020/12/11 09:41:58;;;;;;;14.57;7.93;;;;;;;;;;5101484;28;20085;-92
2020/12/11 09:45:04;;;;;;;12.40;6.88;;;;;;;;;;5102577;28;20020;-92
2020/12/11 09:52:24;;;;;;;12.30;6.57;;;;;;;;;;5106513;28;20035;-90
2020/12/11 09:54:50;;;;;;;12.02;6.72;;;;;;;;;;5104561;28;20028;-86
2020/12/11 09:57:16;;;;;;;13.68;7.80;;;;;;;;;;5104769;28;20024;-89
2020/12/11 09:59:55;;;;;;;13.02;7.20;;;;;;;;;;5098363;28;20024;-91
2020/12/11 10:04:50;;;;;;;13.93;7.65;;;;;;;;;;5086657;28;20048;-88
2020/12/11 11:27:53;;;;;;;13.65;7.50;;;;;;;;;;5088076;28;20066;-85
2020/12/11 11:30:21;;;;;;;14.70;7.75;;;;;;;;;;5083050;28;20380;-84
2020/12/11 11:32:50;;;;;;;12.77;7.43;;;;;;;;;;5089299;28;20025;-87
2020/12/11 11:35:16;;;;;;;15.80;8.30;;;;;;;;;;5088208;28;20020;-89
2020/12/11 11:37:42;;;;;;;16.33;9.13;;;;;;;;;;5087826;28;20431;-91
2020/12/11 11:40:08;;;;;;;14.07;7.53;;;;;;;;;;5081261;28;20070;-86
2020/12/11 11:42:34;;;;;;;17.00;6.90;;;;;;;;;;5085595;28;20019;-81
2020/12/11 11:45:03;;;;;;;12.65;7.78;;;;;;;;;;5087475;28;20028;-89
2020/12/11 11:47:29;;;;;;;11.60;6.75;;;;;;;;;;5085194;28;20027;-85
2020/12/11 11:52:43;;;;;;;11.07;6.90;;;;;;;;;;5089189;28;20028;-90
2020/12/11 11:55:13;;;;;;;16.50;8.05;;;;;;;;;;5085998;28;20487;-87
2020/12/11 11:57:40;;;;;;;16.98;7.55;;;;;;;;;;5087198;28;20025;-87
2020/12/11 12:00:07;;;;;;;14.18;7.43;;;;;;;;;;5101513;28;20054;-85
2020/12/11 12:02:33;;;;;;;12.95;7.53;;;;;;;;;;5112970;28;20028;-92
2020/12/11 12:04:59;;;;;;;12.75;7.00;;;;;;;;;;5110775;28;20024;-81
2020/12/11 12:07:25;;;;;;;13.00;6.35;;;;;;;;;;5109909;28;20020;-91
2020/12/11 12:09:52;;;;;;;14.00;7.85;;;;;;;;;;5105482;28;20063;-88
2020/12/11 12:12:18;;;;;;;13.02;7.18;;;;;;;;;;5086939;28;20035;-87
2020/12/11 12:14:46;;;;;;;15.38;7.80;;;;;;;;;;5091253;28;20021;-82
2020/12/11 12:17:12;;;;;;;12.60;7.75;;;;;;;;;;5088201;28;20032;-89
2020/12/11 12:19:44;;;;;;;13.85;7.15;;;;;;;;;;5089736;28;20024;-86
2020/12/11 12:29:52;;;;;;;12.15;7.25;;;;;;;;;;5079383;28;20484;-92
2020/12/11 12:32:20;;;;;;;12.85;7.20;;;;;;;;;;5080348;28;20021;-77
2020/12/11 12:34:56;;;;;;;12.75;7.18;;;;;;;;;;5079315;28;20052;-92
2020/12/11 12:45:14;;;;;;;12.30;7.00;;;;;;;;;;5076207;28;20025;-90
2020/12/11 12:47:41;;;;;;;14.35;8.07;;;;;;;;;;5073824;28;20020;-91
2020/12/11 12:50:08;;;;;;;11.00;6.88;;;;;;;;;;5073887;28;20026;-88
2020/12/11 12:52:34;;;;;;;12.30;7.60;;;;;;;;;;5056700;28;20055;-82
2020/12/11 12:55:00;;;;;;;11.65;6.82;;;;;;;;;;5076142;28;20025;-85
2020/12/11 12:57:32;;;;;;;12.45;7.25;;;;;;;;;;5073715;28;20047;-80
2020/12/11 13:05:08;;;;;;;13.30;6.50;;;;;;;;;;5073643;28;20432;-79
2020/12/11 13:07:34;;;;;;;12.57;7.13;;;;;;;;;;5073097;28;20158;-82
2020/12/11 13:10:00;;;;;;;13.35;6.75;;;;;;;;;;5073526;28;20364;-91
2020/12/11 13:12:26;;;;;;;15.02;6.60;;;;;;;;;;5057014;28;20036;-82
2020/12/11 13:14:52;;;;;;;12.60;6.40;;;;;;;;;;5074608;28;20025;-81
2020/12/11 13:17:18;;;;;;;12.52;7.00;;;;;;;;;;5073511;28;20024;-88
2020/12/11 13:19:45;;;;;;;10.48;6.43;;;;;;;;;;5073527;28;20024;-87
2020/12/11 13:27:40;;;;;;;14.43;7.95;;;;;;;;;;5070978;28;20822;-85
2020/12/11 13:30:07;;;;;;;9.95;6.47;;;;;;;;;;5071797;28;20017;-86
2020/12/11 13:32:33;;;;;;;15.50;7.63;;;;;;;;;;5073408;28;20024;-90
2020/12/11 13:34:59;;;;;;;13.05;7.78;;;;;;;;;;5072742;28;20418;-89
2020/12/11 13:37:30;;;;;;;12.60;6.40;;;;;;;;;;5071795;28;20025;-81
2020/12/11 13:39:57;;;;;;;12.35;6.63;;;;;;;;;;5073164;28;20020;-91
2020/12/11 13:42:23;;;;;;;10.25;6.55;;;;;;;;;;5071648;28;20073;-90
2020/12/11 13:44:49;;;;;;;11.55;6.65;;;;;;;;;;5071693;28;20032;-87
2020/12/11 13:47:15;;;;;;;11.75;6.90;;;;;;;;;;5070413;28;20020;-87
2020/12/11 13:49:42;;;;;;;10.88;6.85;;;;;;;;;;5071125;28;20024;-84
2020/12/11 13:52:08;;;;;;;10.75;6.35;;;;;;;;;;5071681;28;20036;-91
2020/12/11 13:54:34;;;;;;;10.05;5.95;;;;;;;;;;5071253;28;20051;-82
2020/12/11 13:57:00;;;;;;;10.82;6.28;;;;;;;;;;5091298;28;20055;-87
2020/12/11 13:59:30;;;;;;;12.45;6.38;;;;;;;;;;5072448;28;20115;-86
2020/12/11 14:01:56;;;;;;;10.25;6.30;;;;;;;;;;5090319;28;20035;-86
2020/12/11 14:04:23;;;;;;;12.52;7.18;;;;;;;;;;5089825;28;20027;-82
2020/12/11 14:06:49;;;;;;;11.20;6.57;;;;;;;;;;5089948;28;20028;-85
2020/12/11 14:09:15;;;;;;;11.73;6.80;;;;;;;;;;5090077;28;20016;-80
2020/12/11 14:11:41;;;;;;;11.63;6.82;;;;;;;;;;5089440;28;20036;-89
2020/12/11 14:14:07;;;;;;;12.88;6.68;;;;;;;;;;5089002;28;20105;-83
2020/12/11 14:24:04;;;;;;;11.27;7.03;;;;;;;;;;5091964;28;20124;-85
2020/12/11 14:26:30;;;;;;;13.70;7.93;;;;;;;;;;5092058;28;20080;-79
2020/12/11 14:28:56;;;;;;;13.23;7.18;;;;;;;;;;5092201;28;20028;-86
2020/12/11 14:31:23;;;;;;;11.85;6.28;;;;;;;;;;5091659;28;20368;-85
2020/12/11 14:33:49;;;;;;;15.23;8.40;;;;;;;;;;5073197;28;20460;-84
2020/12/11 14:36:16;;;;;;;13.57;7.40;;;;;;;;;;5074083;28;20031;-82
2020/12/11 14:41:08;;;;;;;14.88;8.50;;;;;;;;;;5071909;28;20075;-77
2020/12/11 14:43:34;;;;;;;12.52;7.30;;;;;;;;;;5071664;28;20024;-80
2020/12/11 14:46:00;;;;;;;16.00;7.85;;;;;;;;;;5071726;28;20024;-81
2020/12/11 14:48:30;;;;;;;12.93;7.68;;;;;;;;;;5072500;28;20499;-85
2020/12/11 14:50:56;;;;;;;14.20;6.75;;;;;;;;;;5075042;28;20071;-84
2020/12/11 14:53:22;;;;;;;12.68;7.10;;;;;;;;;;5075077;28;20028;-85
2020/12/11 14:55:49;;;;;;;13.52;7.05;;;;;;;;;;5074941;28;20024;-76
2020/12/11 14:58:15;;;;;;;11.90;6.80;;;;;;;;;;5075120;28;20104;-86
2020/12/11 15:00:41;;;;;;;12.52;7.38;;;;;;;;;;5075094;28;20058;-86
2020/12/11 15:03:07;;;;;;;11.55;6.43;;;;;;;;;;5075177;28;20067;-85
2020/12/11 15:05:33;;;;;;;14.57;8.18;;;;;;;;;;5075002;28;20472;-81
2020/12/11 15:07:59;;;;;;;14.98;7.72;;;;;;;;;;5074934;28;20021;-75
2020/12/11 15:10:26;;;;;;;13.55;7.15;;;;;;;;;;5074938;28;20032;-78
2020/12/11 15:12:52;;;;;;;12.63;7.40;;;;;;;;;;5084965;28;20012;-85
2020/12/11 15:15:18;;;;;;;14.02;7.05;;;;;;;;;;5094981;28;20107;-77
2020/12/11 15:17:44;;;;;;;9.38;4.50;;;;;;;;;;5094559;28;20055;-81
2020/12/11 15:20:10;;;;;;;11.57;6.30;;;;;;;;;;5094482;28;20028;-84
2020/12/11 15:22:36;;;;;;;11.30;7.10;;;;;;;;;;5084350;28;20021;-83
2020/12/11 15:25:03;;;;;;;11.57;6.57;;;;;;;;;;5074190;28;20032;-84
2020/12/11 15:27:29;;;;;;;12.90;6.97;;;;;;;;;;5074532;28;20027;-74
2020/12/11 15:29:55;;;;;;;12.88;6.47;;;;;;;;;;5073936;28;20099;-80
2020/12/11 15:32:21;;;;;;;12.48;6.68;;;;;;;;;;5074455;28;20404;-80
2020/12/11 15:34:47;;;;;;;14.68;7.10;;;;;;;;;;5074217;28;20032;-75
2020/12/11 15:37:13;;;;;;;13.15;6.38;;;;;;;;;;5074467;28;20435;-80
2020/12/11 15:39:39;;;;;;;12.77;6.72;;;;;;;;;;5074161;28;20021;-76
2020/12/11 15:42:05;;;;;;;15.88;7.28;;;;;;;;;;5074294;28;20043;-81
2020/12/11 15:44:31;;;;;;;13.07;6.75;;;;;;;;;;5073579;28;20024;-78
2020/12/11 15:46:57;;;;;;;12.23;6.35;;;;;;;;;;5074324;28;20020;-85
2020/12/11 15:49:23;;;;;;;13.23;7.30;;;;;;;;;;5056186;28;20028;-82
2020/12/11 15:51:51;;;;;;;10.98;6.57;;;;;;;;;;5073579;28;20417;-82
2020/12/11 15:54:18;;;;;;;12.80;7.20;;;;;;;;;;5088015;28;20052;-76
2020/12/11 15:56:48;;;;;;;14.32;7.38;;;;;;;;;;5093803;28;20020;-79
2020/12/11 15:59:14;;;;;;;14.32;7.18;;;;;;;;;;5094060;28;20069;-87
2020/12/11 16:01:40;;;;;;;14.02;7.38;;;;;;;;;;5076179;28;20032;-79
2020/12/11 16:04:06;;;;;;;14.07;7.65;;;;;;;;;;5094337;28;20024;-74
2020/12/11 16:06:33;;;;;;;13.70;7.07;;;;;;;;;;5072002;28;20021;-81
2020/12/11 16:08:59;;;;;;;15.38;8.48;;;;;;;;;;5071724;28;20031;-82
2020/12/11 16:11:26;;;;;;;16.83;8.20;;;;;;;;;;5070486;28;20109;-75
2020/12/11 16:13:52;;;;;;;13.50;7.43;;;;;;;;;;5071773;28;20021;-79
2020/12/11 16:16:18;;;;;;;13.20;6.80;;;;;;;;;;5071373;28;20020;-82
2020/12/11 16:18:44;;;;;;;12.65;7.53;;;;;;;;;;5071994;28;20093;-84
2020/12/11 16:21:10;;;;;;;13.80;7.60;;;;;;;;;;5071361;28;20033;-82
2020/12/11 16:23:37;;;;;;;14.35;7.70;;;;;;;;;;5071300;28;20236;-82
2020/12/11 16:26:03;;;;;;;21.00;7.50;;;;;;;;;;5071214;28;20044;-72
2020/12/11 16:28:29;;;;;;;16.52;8.30;;;;;;;;;;5071203;28;20104;-77
2020/12/11 16:30:56;;;;;;;16.15;8.30;;;;;;;;;;5071256;28;20037;-73
2020/12/11 16:33:25;;;;;;;13.75;7.93;;;;;;;;;;5071068;28;20317;-81
2020/12/11 16:35:51;;;;;;;17.65;8.98;;;;;;;;;;5074629;28;20020;-83
2020/12/11 16:38:17;;;;;;;14.18;7.60;;;;;;;;;;5070752;28;20025;-84
2020/12/11 16:40:44;;;;;;;18.98;9.52;;;;;;;;;;5071097;28;20507;-85